sensor_id;sensor_type;location;lat;lon;timestamp;temperature;humidity
9816;DHT22;4947;44.526;11.360;2023-04-05T00:00:28;4.00;99.90
9816;DHT22;4947;44.526;11.360;2023-04-05T00:02:56;4.00;99.90
9816;DHT22;4947;44.526;11.360;2023-04-05T00:05:24;4.00;99.90
9816;DHT22;4947;44.526;11.360;2023-04-05T00:07:55;4.00;99.90
9816;DHT22;4947;44.526;11.360;2023-04-05T00:10:24;4.10;99.90
9816;DHT22;4947;44.526;11.360;2023-04-05T00:12:56;4.00;99.90
9816;DHT22;4947;44.526;11.360;2023-04-05T00:15:23;4.00;99.90
9816;DHT22;4947;44.526;11.360;2023-04-05T00:17:51;4.00;99.90
9816;DHT22;4947;44.526;11.360;2023-04-05T00:20:18;4.10;99.90
9816;DHT22;4947;44.526;11.360;2023-04-05T00:22:46;4.10;99.90
9816;DHT22;4947;44.526;11.360;2023-04-05T00:25:15;4.10;99.90
9816;DHT22;4947;44.526;11.360;2023-04-05T00:27:43;4.00;99.90
9816;DHT22;4947;44.526;11.360;2023-04-05T00:30:12;3.90;99.90
9816;DHT22;4947;44.526;11.360;2023-04-05T00:32:46;3.90;99.90
9816;DHT22;4947;44.526;11.360;2023-04-05T00:35:14;3.90;99.30
9816;DHT22;4947;44.526;11.360;2023-04-05T00:37:42;3.80;99.90
9816;DHT22;4947;44.526;11.360;2023-04-05T00:40:10;3.70;99.50
9816;DHT22;4947;44.526;11.360;2023-04-05T00:42:37;3.70;99.90
9816;DHT22;4947;44.526;11.360;2023-04-05T00:45:06;3.60;99.90
9816;DHT22;4947;44.526;11.360;2023-04-05T00:47:35;3.60;99.90
9816;DHT22;4947;44.526;11.360;2023-04-05T00:50:05;3.60;99.90
9816;DHT22;4947;44.526;11.360;2023-04-05T00:52:34;3.60;99.90
9816;DHT22;4947;44.526;11.360;2023-04-05T00:55:02;3.60;99.90
9816;DHT22;4947;44.526;11.360;2023-04-05T00:57:30;3.60;99.90
9816;DHT22;4947;44.526;11.360;2023-04-05T00:59:59;3.60;99.90
9816;DHT22;4947;44.526;11.360;2023-04-05T01:02:32;3.60;99.90
9816;DHT22;4947;44.526;11.360;2023-04-05T01:05:16;3.50;99.90
9816;DHT22;4947;44.526;11.360;2023-04-05T01:07:53;3.50;99.90
9816;DHT22;4947;44.526;11.360;2023-04-05T01:10:38;3.40;99.90
9816;DHT22;4947;44.526;11.360;2023-04-05T01:13:09;3.40;99.90
9816;DHT22;4947;44.526;11.360;2023-04-05T01:15:36;3.40;99.90
9816;DHT22;4947;44.526;11.360;2023-04-05T01:18:04;3.40;99.90
9816;DHT22;4947;44.526;11.360;2023-04-05T01:20:39;3.30;99.90
9816;DHT22;4947;44.526;11.360;2023-04-05T01:23:27;3.30;99.90
9816;DHT22;4947;44.526;11.360;2023-04-05T01:26:30;3.30;99.90
9816;DHT22;4947;44.526;11.360;2023-04-05T01:32:01;3.30;99.90
9816;DHT22;4947;44.526;11.360;2023-04-05T01:34:35;3.20;99.90
9816;DHT22;4947;44.526;11.360;2023-04-05T01:37:10;3.20;99.90
9816;DHT22;4947;44.526;11.360;2023-04-05T01:39:38;3.10;99.90
9816;DHT22;4947;44.526;11.360;2023-04-05T01:42:09;3.00;99.90
9816;DHT22;4947;44.526;11.360;2023-04-05T01:44:37;3.10;99.90
9816;DHT22;4947;44.526;11.360;2023-04-05T01:47:06;3.00;99.90
9816;DHT22;4947;44.526;11.360;2023-04-05T01:49:34;3.00;99.90
9816;DHT22;4947;44.526;11.360;2023-04-05T01:52:01;3.00;99.90
9816;DHT22;4947;44.526;11.360;2023-04-05T01:54:29;3.00;99.90
9816;DHT22;4947;44.526;11.360;2023-04-05T01:56:56;3.00;99.90
9816;DHT22;4947;44.526;11.360;2023-04-05T01:59:24;3.10;99.90
9816;DHT22;4947;44.526;11.360;2023-04-05T02:01:52;3.20;99.90
9816;DHT22;4947;44.526;11.360;2023-04-05T02:04:21;3.20;99.90
9816;DHT22;4947;44.526;11.360;2023-04-05T02:06:49;3.20;99.90
9816;DHT22;4947;44.526;11.360;2023-04-05T02:09:17;3.10;99.90
9816;DHT22;4947;44.526;11.360;2023-04-05T02:11:45;3.10;99.90
9816;DHT22;4947;44.526;11.360;2023-04-05T02:14:12;3.20;99.90
9816;DHT22;4947;44.526;11.360;2023-04-05T02:16:44;3.20;99.90
9816;DHT22;4947;44.526;11.360;2023-04-05T02:19:11;3.20;99.90
9816;DHT22;4947;44.526;11.360;2023-04-05T02:21:41;3.20;99.90
9816;DHT22;4947;44.526;11.360;2023-04-05T02:24:10;3.30;99.90
9816;DHT22;4947;44.526;11.360;2023-04-05T02:26:38;3.20;99.90
9816;DHT22;4947;44.526;11.360;2023-04-05T02:29:06;3.20;99.90
9816;DHT22;4947;44.526;11.360;2023-04-05T02:31:34;3.10;99.90
9816;DHT22;4947;44.526;11.360;2023-04-05T02:34:01;3.00;99.90
9816;DHT22;4947;44.526;11.360;2023-04-05T02:36:29;3.00;99.90
9816;DHT22;4947;44.526;11.360;2023-04-05T02:38:58;3.00;99.90
9816;DHT22;4947;44.526;11.360;2023-04-05T02:41:25;3.00;99.90
9816;DHT22;4947;44.526;11.360;2023-04-05T02:43:53;2.90;99.90
9816;DHT22;4947;44.526;11.360;2023-04-05T02:46:20;2.90;99.90
9816;DHT22;4947;44.526;11.360;2023-04-05T02:48:47;2.90;99.90
9816;DHT22;4947;44.526;11.360;2023-04-05T02:51:15;3.00;99.90
9816;DHT22;4947;44.526;11.360;2023-04-05T02:53:42;3.00;99.90
9816;DHT22;4947;44.526;11.360;2023-04-05T02:56:12;2.90;99.90
9816;DHT22;4947;44.526;11.360;2023-04-05T02:58:40;2.90;99.90
9816;DHT22;4947;44.526;11.360;2023-04-05T03:01:07;2.90;99.90
9816;DHT22;4947;44.526;11.360;2023-04-05T03:03:35;2.90;99.90
9816;DHT22;4947;44.526;11.360;2023-04-05T03:06:05;2.90;99.90
9816;DHT22;4947;44.526;11.360;2023-04-05T03:08:34;2.90;99.90
9816;DHT22;4947;44.526;11.360;2023-04-05T03:11:03;2.90;99.90
9816;DHT22;4947;44.526;11.360;2023-04-05T03:13:32;2.90;99.90
9816;DHT22;4947;44.526;11.360;2023-04-05T03:15:59;2.80;99.90
9816;DHT22;4947;44.526;11.360;2023-04-05T03:18:27;2.90;99.90
9816;DHT22;4947;44.526;11.360;2023-04-05T03:20:55;2.80;99.90
9816;DHT22;4947;44.526;11.360;2023-04-05T03:23:22;2.80;99.90
9816;DHT22;4947;44.526;11.360;2023-04-05T03:25:54;2.80;99.90
9816;DHT22;4947;44.526;11.360;2023-04-05T03:28:25;2.80;99.90
9816;DHT22;4947;44.526;11.360;2023-04-05T03:30:54;2.80;99.90
9816;DHT22;4947;44.526;11.360;2023-04-05T03:33:22;2.80;99.90
9816;DHT22;4947;44.526;11.360;2023-04-05T03:35:50;2.80;99.90
9816;DHT22;4947;44.526;11.360;2023-04-05T03:38:18;2.80;99.90
9816;DHT22;4947;44.526;11.360;2023-04-05T03:40:45;2.80;99.90
9816;DHT22;4947;44.526;11.360;2023-04-05T03:43:12;2.90;99.90
9816;DHT22;4947;44.526;11.360;2023-04-05T03:45:40;2.90;99.90
9816;DHT22;4947;44.526;11.360;2023-04-05T03:48:09;2.90;99.90
9816;DHT22;4947;44.526;11.360;2023-04-05T03:50:36;2.90;99.90
9816;DHT22;4947;44.526;11.360;2023-04-05T03:53:04;2.90;99.90
9816;DHT22;4947;44.526;11.360;2023-04-05T03:55:32;2.90;99.90
9816;DHT22;4947;44.526;11.360;2023-04-05T03:57:59;2.90;99.90
9816;DHT22;4947;44.526;11.360;2023-04-05T04:00:27;2.90;99.90
9816;DHT22;4947;44.526;11.360;2023-04-05T04:02:54;2.90;99.90
9816;DHT22;4947;44.526;11.360;2023-04-05T04:05:23;2.90;99.90
9816;DHT22;4947;44.526;11.360;2023-04-05T04:07:55;2.90;99.90
9816;DHT22;4947;44.526;11.360;2023-04-05T04:10:23;2.90;99.90
9816;DHT22;4947;44.526;11.360;2023-04-05T04:12:51;2.90;99.90
9816;DHT22;4947;44.526;11.360;2023-04-05T04:15:18;2.90;99.90
9816;DHT22;4947;44.526;11.360;2023-04-05T04:17:46;2.90;99.90
9816;DHT22;4947;44.526;11.360;2023-04-05T04:20:14;2.90;99.90
9816;DHT22;4947;44.526;11.360;2023-04-05T04:22:43;3.00;99.90
9816;DHT22;4947;44.526;11.360;2023-04-05T04:25:11;3.00;99.90
9816;DHT22;4947;44.526;11.360;2023-04-05T04:27:41;3.10;99.90
9816;DHT22;4947;44.526;11.360;2023-04-05T04:30:10;3.10;99.90
9816;DHT22;4947;44.526;11.360;2023-04-05T04:32:38;3.00;99.90
9816;DHT22;4947;44.526;11.360;2023-04-05T04:35:29;3.00;99.90
9816;DHT22;4947;44.526;11.360;2023-04-05T04:38:00;3.00;99.90
9816;DHT22;4947;44.526;11.360;2023-04-05T04:40:29;3.00;99.90
9816;DHT22;4947;44.526;11.360;2023-04-05T04:43:03;3.00;99.90
9816;DHT22;4947;44.526;11.360;2023-04-05T04:45:31;3.10;99.90
9816;DHT22;4947;44.526;11.360;2023-04-05T04:48:02;3.20;99.90
9816;DHT22;4947;44.526;11.360;2023-04-05T04:50:38;3.20;99.90
9816;DHT22;4947;44.526;11.360;2023-04-05T04:53:12;3.30;99.90
9816;DHT22;4947;44.526;11.360;2023-04-05T04:55:42;3.30;99.90
9816;DHT22;4947;44.526;11.360;2023-04-05T04:58:10;3.30;99.90
9816;DHT22;4947;44.526;11.360;2023-04-05T05:00:38;3.40;99.90
9816;DHT22;4947;44.526;11.360;2023-04-05T05:03:06;3.30;99.90
9816;DHT22;4947;44.526;11.360;2023-04-05T05:05:40;3.30;99.90
9816;DHT22;4947;44.526;11.360;2023-04-05T05:08:07;3.30;99.90
9816;DHT22;4947;44.526;11.360;2023-04-05T05:10:37;3.30;99.90
9816;DHT22;4947;44.526;11.360;2023-04-05T05:13:04;3.20;99.90
9816;DHT22;4947;44.526;11.360;2023-04-05T05:15:41;3.20;99.90
9816;DHT22;4947;44.526;11.360;2023-04-05T05:18:08;3.10;99.90
9816;DHT22;4947;44.526;11.360;2023-04-05T05:20:36;3.20;99.90
9816;DHT22;4947;44.526;11.360;2023-04-05T05:23:04;3.10;99.90
9816;DHT22;4947;44.526;11.360;2023-04-05T05:25:32;3.20;99.90
9816;DHT22;4947;44.526;11.360;2023-04-05T05:28:01;3.30;99.90
9816;DHT22;4947;44.526;11.360;2023-04-05T05:30:28;3.40;99.90
9816;DHT22;4947;44.526;11.360;2023-04-05T05:32:56;3.50;99.90
9816;DHT22;4947;44.526;11.360;2023-04-05T05:35:23;3.60;99.90
9816;DHT22;4947;44.526;11.360;2023-04-05T05:37:52;3.70;99.90
9816;DHT22;4947;44.526;11.360;2023-04-05T05:40:20;3.70;99.90
9816;DHT22;4947;44.526;11.360;2023-04-05T05:42:48;3.80;99.90
9816;DHT22;4947;44.526;11.360;2023-04-05T05:45:17;4.00;99.90
9816;DHT22;4947;44.526;11.360;2023-04-05T05:47:44;4.10;99.90
9816;DHT22;4947;44.526;11.360;2023-04-05T05:50:11;4.20;99.90
9816;DHT22;4947;44.526;11.360;2023-04-05T05:52:41;4.40;99.90
9816;DHT22;4947;44.526;11.360;2023-04-05T05:55:09;4.50;99.90
9816;DHT22;4947;44.526;11.360;2023-04-05T05:57:36;4.40;99.90
9816;DHT22;4947;44.526;11.360;2023-04-05T06:00:05;4.30;99.90
9816;DHT22;4947;44.526;11.360;2023-04-05T06:02:35;4.40;99.90
9816;DHT22;4947;44.526;11.360;2023-04-05T06:05:03;4.50;99.90
9816;DHT22;4947;44.526;11.360;2023-04-05T06:07:36;4.50;99.70
9816;DHT22;4947;44.526;11.360;2023-04-05T06:10:04;4.70;99.90
9816;DHT22;4947;44.526;11.360;2023-04-05T06:12:31;4.80;99.50
9816;DHT22;4947;44.526;11.360;2023-04-05T06:15:00;4.90;97.60
9816;DHT22;4947;44.526;11.360;2023-04-05T06:17:28;5.00;96.80
9816;DHT22;4947;44.526;11.360;2023-04-05T06:19:57;5.10;96.20
9816;DHT22;4947;44.526;11.360;2023-04-05T06:22:24;5.20;96.60
9816;DHT22;4947;44.526;11.360;2023-04-05T06:24:52;5.30;96.00
9816;DHT22;4947;44.526;11.360;2023-04-05T06:27:20;5.40;95.50
9816;DHT22;4947;44.526;11.360;2023-04-05T06:29:47;5.60;92.80
9816;DHT22;4947;44.526;11.360;2023-04-05T06:32:15;5.70;92.20
9816;DHT22;4947;44.526;11.360;2023-04-05T06:34:49;5.90;91.10
9816;DHT22;4947;44.526;11.360;2023-04-05T06:37:20;6.10;91.60
9816;DHT22;4947;44.526;11.360;2023-04-05T06:39:47;6.10;89.20
9816;DHT22;4947;44.526;11.360;2023-04-05T06:42:14;6.20;89.10
9816;DHT22;4947;44.526;11.360;2023-04-05T06:44:42;6.20;90.20
9816;DHT22;4947;44.526;11.360;2023-04-05T06:47:09;6.30;89.60
9816;DHT22;4947;44.526;11.360;2023-04-05T06:49:37;6.40;90.20
9816;DHT22;4947;44.526;11.360;2023-04-05T06:52:05;6.50;89.00
9816;DHT22;4947;44.526;11.360;2023-04-05T06:54:37;6.70;88.40
9816;DHT22;4947;44.526;11.360;2023-04-05T06:57:05;6.90;84.40
9816;DHT22;4947;44.526;11.360;2023-04-05T06:59:32;7.20;85.60
9816;DHT22;4947;44.526;11.360;2023-04-05T07:01:59;7.20;85.50
9816;DHT22;4947;44.526;11.360;2023-04-05T07:04:27;7.40;85.90
9816;DHT22;4947;44.526;11.360;2023-04-05T07:06:59;7.20;79.10
9816;DHT22;4947;44.526;11.360;2023-04-05T07:09:29;7.60;77.90
9816;DHT22;4947;44.526;11.360;2023-04-05T07:11:58;7.70;75.90
9816;DHT22;4947;44.526;11.360;2023-04-05T07:14:28;7.70;74.30
9816;DHT22;4947;44.526;11.360;2023-04-05T07:16:56;7.70;74.50
9816;DHT22;4947;44.526;11.360;2023-04-05T07:19:25;7.90;75.60
9816;DHT22;4947;44.526;11.360;2023-04-05T07:21:52;8.30;74.40
9816;DHT22;4947;44.526;11.360;2023-04-05T07:24:20;8.40;67.40
9816;DHT22;4947;44.526;11.360;2023-04-05T07:26:47;8.30;67.10
9816;DHT22;4947;44.526;11.360;2023-04-05T07:29:16;8.50;64.50
9816;DHT22;4947;44.526;11.360;2023-04-05T07:31:44;8.40;66.40
9816;DHT22;4947;44.526;11.360;2023-04-05T07:34:12;9.10;63.50
9816;DHT22;4947;44.526;11.360;2023-04-05T07:36:39;9.60;61.30
9816;DHT22;4947;44.526;11.360;2023-04-05T07:39:07;10.20;61.80
9816;DHT22;4947;44.526;11.360;2023-04-05T07:41:34;10.70;60.30
9816;DHT22;4947;44.526;11.360;2023-04-05T07:44:02;11.10;61.10
9816;DHT22;4947;44.526;11.360;2023-04-05T07:46:33;11.20;54.60
9816;DHT22;4947;44.526;11.360;2023-04-05T07:49:01;11.20;56.60
9816;DHT22;4947;44.526;11.360;2023-04-05T07:51:28;11.10;54.40
9816;DHT22;4947;44.526;11.360;2023-04-05T07:53:56;11.00;55.20
9816;DHT22;4947;44.526;11.360;2023-04-05T07:56:23;11.30;54.40
9816;DHT22;4947;44.526;11.360;2023-04-05T07:58:51;11.50;53.90
9816;DHT22;4947;44.526;11.360;2023-04-05T08:01:19;12.00;52.00
9816;DHT22;4947;44.526;11.360;2023-04-05T08:03:50;12.10;51.20
9816;DHT22;4947;44.526;11.360;2023-04-05T08:06:17;12.50;50.80
9816;DHT22;4947;44.526;11.360;2023-04-05T08:08:45;12.50;48.70
9816;DHT22;4947;44.526;11.360;2023-04-05T08:11:12;12.60;46.20
9816;DHT22;4947;44.526;11.360;2023-04-05T08:13:40;12.90;48.70
9816;DHT22;4947;44.526;11.360;2023-04-05T08:16:12;12.80;50.20
9816;DHT22;4947;44.526;11.360;2023-04-05T08:18:39;13.40;49.60
9816;DHT22;4947;44.526;11.360;2023-04-05T08:21:09;13.60;47.20
9816;DHT22;4947;44.526;11.360;2023-04-05T08:23:36;13.50;48.40
9816;DHT22;4947;44.526;11.360;2023-04-05T08:26:04;13.50;48.20
9816;DHT22;4947;44.526;11.360;2023-04-05T08:28:32;13.30;47.20
9816;DHT22;4947;44.526;11.360;2023-04-05T08:31:00;13.10;47.70
9816;DHT22;4947;44.526;11.360;2023-04-05T08:33:27;12.00;47.50
9816;DHT22;4947;44.526;11.360;2023-04-05T08:35:56;12.50;49.10
9816;DHT22;4947;44.526;11.360;2023-04-05T08:38:25;12.70;48.50
9816;DHT22;4947;44.526;11.360;2023-04-05T08:40:53;12.80;48.80
9816;DHT22;4947;44.526;11.360;2023-04-05T08:43:24;12.50;47.70
9816;DHT22;4947;44.526;11.360;2023-04-05T08:45:55;12.30;49.60
9816;DHT22;4947;44.526;11.360;2023-04-05T08:48:25;12.60;48.60
9816;DHT22;4947;44.526;11.360;2023-04-05T08:50:54;12.90;50.10
9816;DHT22;4947;44.526;11.360;2023-04-05T08:53:22;13.30;49.70
9816;DHT22;4947;44.526;11.360;2023-04-05T08:55:54;14.00;48.80
9816;DHT22;4947;44.526;11.360;2023-04-05T08:58:23;14.00;45.40
9816;DHT22;4947;44.526;11.360;2023-04-05T09:00:51;13.70;45.00
9816;DHT22;4947;44.526;11.360;2023-04-05T09:03:21;13.50;44.90
9816;DHT22;4947;44.526;11.360;2023-04-05T09:05:50;13.50;45.50
9816;DHT22;4947;44.526;11.360;2023-04-05T09:08:18;12.90;46.00
9816;DHT22;4947;44.526;11.360;2023-04-05T09:10:48;12.70;49.00
9816;DHT22;4947;44.526;11.360;2023-04-05T09:13:18;12.90;49.90
9816;DHT22;4947;44.526;11.360;2023-04-05T09:15:46;13.20;49.70
9816;DHT22;4947;44.526;11.360;2023-04-05T09:18:15;13.40;48.40
9816;DHT22;4947;44.526;11.360;2023-04-05T09:20:42;13.30;47.90
9816;DHT22;4947;44.526;11.360;2023-04-05T09:23:10;13.50;45.50
9816;DHT22;4947;44.526;11.360;2023-04-05T09:25:42;13.60;45.30
9816;DHT22;4947;44.526;11.360;2023-04-05T09:28:11;13.90;45.60
9816;DHT22;4947;44.526;11.360;2023-04-05T09:30:44;14.60;47.60
9816;DHT22;4947;44.526;11.360;2023-04-05T09:33:18;14.50;46.70
9816;DHT22;4947;44.526;11.360;2023-04-05T09:35:49;15.50;46.50
9816;DHT22;4947;44.526;11.360;2023-04-05T09:38:18;15.40;43.90
9816;DHT22;4947;44.526;11.360;2023-04-05T09:40:48;15.40;45.10
9816;DHT22;4947;44.526;11.360;2023-04-05T09:43:37;16.00;45.10
9816;DHT22;4947;44.526;11.360;2023-04-05T09:46:06;15.50;37.90
9816;DHT22;4947;44.526;11.360;2023-04-05T09:48:45;16.20;37.30
9816;DHT22;4947;44.526;11.360;2023-04-05T09:51:13;17.10;38.70
9816;DHT22;4947;44.526;11.360;2023-04-05T09:53:56;17.40;38.10
9816;DHT22;4947;44.526;11.360;2023-04-05T09:56:24;17.80;35.70
9816;DHT22;4947;44.526;11.360;2023-04-05T09:58:56;16.90;32.90
9816;DHT22;4947;44.526;11.360;2023-04-05T10:01:30;15.80;34.20
9816;DHT22;4947;44.526;11.360;2023-04-05T10:03:58;16.00;36.20
9816;DHT22;4947;44.526;11.360;2023-04-05T10:06:34;15.20;34.20
9816;DHT22;4947;44.526;11.360;2023-04-05T10:09:06;14.10;34.30
9816;DHT22;4947;44.526;11.360;2023-04-05T10:11:35;13.50;34.50
9816;DHT22;4947;44.526;11.360;2023-04-05T10:14:05;13.40;35.20
9816;DHT22;4947;44.526;11.360;2023-04-05T10:16:40;13.40;34.60
9816;DHT22;4947;44.526;11.360;2023-04-05T10:19:17;13.50;37.90
9816;DHT22;4947;44.526;11.360;2023-04-05T10:21:47;13.70;37.70
9816;DHT22;4947;44.526;11.360;2023-04-05T10:24:20;13.20;35.00
9816;DHT22;4947;44.526;11.360;2023-04-05T10:26:58;12.80;36.40
9816;DHT22;4947;44.526;11.360;2023-04-05T10:29:37;12.40;35.40
9816;DHT22;4947;44.526;11.360;2023-04-05T10:32:15;12.10;35.20
9816;DHT22;4947;44.526;11.360;2023-04-05T10:34:50;11.80;35.00
9816;DHT22;4947;44.526;11.360;2023-04-05T10:37:29;11.90;35.00
9816;DHT22;4947;44.526;11.360;2023-04-05T10:40:02;12.00;34.70
9816;DHT22;4947;44.526;11.360;2023-04-05T10:42:36;12.10;34.50
9816;DHT22;4947;44.526;11.360;2023-04-05T10:45:07;12.10;33.40
9816;DHT22;4947;44.526;11.360;2023-04-05T10:47:41;11.90;32.90
9816;DHT22;4947;44.526;11.360;2023-04-05T10:50:17;11.80;31.30
9816;DHT22;4947;44.526;11.360;2023-04-05T10:52:47;12.10;32.40
9816;DHT22;4947;44.526;11.360;2023-04-05T10:55:15;12.10;31.70
9816;DHT22;4947;44.526;11.360;2023-04-05T10:57:45;11.90;32.40
9816;DHT22;4947;44.526;11.360;2023-04-05T11:00:16;11.70;32.90
9816;DHT22;4947;44.526;11.360;2023-04-05T11:02:47;11.80;34.10
9816;DHT22;4947;44.526;11.360;2023-04-05T11:05:29;11.70;32.60
9816;DHT22;4947;44.526;11.360;2023-04-05T11:08:01;11.80;33.30
9816;DHT22;4947;44.526;11.360;2023-04-05T11:10:30;11.70;32.20
9816;DHT22;4947;44.526;11.360;2023-04-05T11:13:08;11.60;33.30
9816;DHT22;4947;44.526;11.360;2023-04-05T11:15:36;12.00;34.90
9816;DHT22;4947;44.526;11.360;2023-04-05T11:18:08;12.10;33.00
9816;DHT22;4947;44.526;11.360;2023-04-05T11:20:40;11.90;30.90
9816;DHT22;4947;44.526;11.360;2023-04-05T11:23:08;11.60;29.50
9816;DHT22;4947;44.526;11.360;2023-04-05T11:25:37;11.60;30.00
9816;DHT22;4947;44.526;11.360;2023-04-05T11:28:05;11.60;29.70
9816;DHT22;4947;44.526;11.360;2023-04-05T11:30:46;11.60;29.90
9816;DHT22;4947;44.526;11.360;2023-04-05T11:33:36;11.60;30.30
9816;DHT22;4947;44.526;11.360;2023-04-05T11:36:05;11.80;30.70
9816;DHT22;4947;44.526;11.360;2023-04-05T11:38:32;11.70;29.50
9816;DHT22;4947;44.526;11.360;2023-04-05T11:41:11;11.90;29.70
9816;DHT22;4947;44.526;11.360;2023-04-05T11:43:42;11.80;28.70
9816;DHT22;4947;44.526;11.360;2023-04-05T11:46:17;11.50;27.30
9816;DHT22;4947;44.526;11.360;2023-04-05T11:48:49;11.30;27.40
9816;DHT22;4947;44.526;11.360;2023-04-05T11:51:19;11.30;27.80
9816;DHT22;4947;44.526;11.360;2023-04-05T11:53:49;11.40;28.80
9816;DHT22;4947;44.526;11.360;2023-04-05T11:56:16;11.50;29.60
9816;DHT22;4947;44.526;11.360;2023-04-05T11:58:44;11.40;28.50
9816;DHT22;4947;44.526;11.360;2023-04-05T12:01:12;11.40;29.20
9816;DHT22;4947;44.526;11.360;2023-04-05T12:03:39;11.50;29.50
9816;DHT22;4947;44.526;11.360;2023-04-05T12:06:08;11.60;30.30
9816;DHT22;4947;44.526;11.360;2023-04-05T12:08:39;11.50;29.60
9816;DHT22;4947;44.526;11.360;2023-04-05T12:11:08;11.40;30.00
9816;DHT22;4947;44.526;11.360;2023-04-05T12:13:37;11.50;30.90
9816;DHT22;4947;44.526;11.360;2023-04-05T12:16:06;11.30;30.70
9816;DHT22;4947;44.526;11.360;2023-04-05T12:18:35;11.40;32.70
9816;DHT22;4947;44.526;11.360;2023-04-05T12:21:04;11.40;33.20
9816;DHT22;4947;44.526;11.360;2023-04-05T12:23:34;11.50;33.70
9816;DHT22;4947;44.526;11.360;2023-04-05T12:26:03;11.50;32.80
9816;DHT22;4947;44.526;11.360;2023-04-05T12:28:49;11.50;32.10
9816;DHT22;4947;44.526;11.360;2023-04-05T12:31:17;11.40;33.00
9816;DHT22;4947;44.526;11.360;2023-04-05T12:33:47;11.50;32.80
9816;DHT22;4947;44.526;11.360;2023-04-05T12:36:15;11.50;32.80
9816;DHT22;4947;44.526;11.360;2023-04-05T12:38:44;11.30;31.60
9816;DHT22;4947;44.526;11.360;2023-04-05T12:41:12;11.10;31.60
9816;DHT22;4947;44.526;11.360;2023-04-05T12:43:40;11.10;32.30
9816;DHT22;4947;44.526;11.360;2023-04-05T12:46:09;11.00;30.30
9816;DHT22;4947;44.526;11.360;2023-04-05T12:48:37;11.00;25.10
9816;DHT22;4947;44.526;11.360;2023-04-05T12:51:13;11.10;24.90
9816;DHT22;4947;44.526;11.360;2023-04-05T12:53:45;11.10;25.80
9816;DHT22;4947;44.526;11.360;2023-04-05T12:56:14;11.20;26.10
9816;DHT22;4947;44.526;11.360;2023-04-05T12:58:42;11.20;24.90
9816;DHT22;4947;44.526;11.360;2023-04-05T13:01:09;11.30;22.40
9816;DHT22;4947;44.526;11.360;2023-04-05T13:03:37;11.30;23.20
9816;DHT22;4947;44.526;11.360;2023-04-05T13:06:05;11.30;23.80
9816;DHT22;4947;44.526;11.360;2023-04-05T13:08:33;11.20;24.70
9816;DHT22;4947;44.526;11.360;2023-04-05T13:11:06;11.20;24.70
9816;DHT22;4947;44.526;11.360;2023-04-05T13:13:34;11.30;24.50
9816;DHT22;4947;44.526;11.360;2023-04-05T13:16:02;11.20;24.00
9816;DHT22;4947;44.526;11.360;2023-04-05T13:18:29;11.00;23.50
9816;DHT22;4947;44.526;11.360;2023-04-05T13:20:57;11.10;24.90
9816;DHT22;4947;44.526;11.360;2023-04-05T13:23:25;11.20;23.30
9816;DHT22;4947;44.526;11.360;2023-04-05T13:25:52;11.10;22.40
9816;DHT22;4947;44.526;11.360;2023-04-05T13:28:21;11.10;23.30
9816;DHT22;4947;44.526;11.360;2023-04-05T13:30:50;11.00;23.30
9816;DHT22;4947;44.526;11.360;2023-04-05T13:33:18;10.90;23.80
9816;DHT22;4947;44.526;11.360;2023-04-05T13:35:48;11.00;24.30
9816;DHT22;4947;44.526;11.360;2023-04-05T13:38:16;11.00;23.30
9816;DHT22;4947;44.526;11.360;2023-04-05T13:40:44;11.00;22.90
9816;DHT22;4947;44.526;11.360;2023-04-05T13:43:12;10.90;23.50
9816;DHT22;4947;44.526;11.360;2023-04-05T13:45:41;10.90;23.70
9816;DHT22;4947;44.526;11.360;2023-04-05T13:48:08;10.90;24.40
9816;DHT22;4947;44.526;11.360;2023-04-05T13:50:36;11.10;25.00
9816;DHT22;4947;44.526;11.360;2023-04-05T13:53:03;11.10;24.50
9816;DHT22;4947;44.526;11.360;2023-04-05T13:55:31;11.10;24.00
9816;DHT22;4947;44.526;11.360;2023-04-05T13:57:58;10.70;23.00
9816;DHT22;4947;44.526;11.360;2023-04-05T14:00:26;10.80;24.70
9816;DHT22;4947;44.526;11.360;2023-04-05T14:02:55;10.80;23.70
9816;DHT22;4947;44.526;11.360;2023-04-05T14:05:25;10.90;24.40
9816;DHT22;4947;44.526;11.360;2023-04-05T14:07:53;11.00;24.00
9816;DHT22;4947;44.526;11.360;2023-04-05T14:10:20;11.10;24.20
9816;DHT22;4947;44.526;11.360;2023-04-05T14:12:51;11.20;24.90
9816;DHT22;4947;44.526;11.360;2023-04-05T14:15:18;11.30;24.30
9816;DHT22;4947;44.526;11.360;2023-04-05T14:17:46;11.20;23.10
9816;DHT22;4947;44.526;11.360;2023-04-05T14:20:16;11.00;23.30
9816;DHT22;4947;44.526;11.360;2023-04-05T14:22:43;10.80;23.80
9816;DHT22;4947;44.526;11.360;2023-04-05T14:25:11;10.70;24.20
9816;DHT22;4947;44.526;11.360;2023-04-05T14:27:38;10.60;24.50
9816;DHT22;4947;44.526;11.360;2023-04-05T14:30:08;10.60;24.90
9816;DHT22;4947;44.526;11.360;2023-04-05T14:32:36;10.60;24.80
9816;DHT22;4947;44.526;11.360;2023-04-05T14:35:04;10.70;25.10
9816;DHT22;4947;44.526;11.360;2023-04-05T14:37:33;10.80;26.50
9816;DHT22;4947;44.526;11.360;2023-04-05T14:40:01;10.80;26.80
9816;DHT22;4947;44.526;11.360;2023-04-05T14:42:29;10.70;27.00
9816;DHT22;4947;44.526;11.360;2023-04-05T14:44:57;10.60;27.60
9816;DHT22;4947;44.526;11.360;2023-04-05T14:47:25;10.60;26.40
9816;DHT22;4947;44.526;11.360;2023-04-05T14:49:53;10.70;26.60
9816;DHT22;4947;44.526;11.360;2023-04-05T14:52:21;10.70;27.40
9816;DHT22;4947;44.526;11.360;2023-04-05T14:54:50;10.80;28.70
9816;DHT22;4947;44.526;11.360;2023-04-05T14:57:18;10.70;28.20
9816;DHT22;4947;44.526;11.360;2023-04-05T14:59:45;10.70;27.00
9816;DHT22;4947;44.526;11.360;2023-04-05T15:02:17;10.70;26.90
9816;DHT22;4947;44.526;11.360;2023-04-05T15:04:44;10.80;27.70
9816;DHT22;4947;44.526;11.360;2023-04-05T15:07:15;10.90;28.00
9816;DHT22;4947;44.526;11.360;2023-04-05T15:09:43;10.90;29.00
9816;DHT22;4947;44.526;11.360;2023-04-05T15:12:13;10.90;28.30
9816;DHT22;4947;44.526;11.360;2023-04-05T15:14:41;10.90;27.40
9816;DHT22;4947;44.526;11.360;2023-04-05T15:17:10;10.80;27.80
9816;DHT22;4947;44.526;11.360;2023-04-05T15:19:37;10.70;27.40
9816;DHT22;4947;44.526;11.360;2023-04-05T15:22:05;10.70;28.60
9816;DHT22;4947;44.526;11.360;2023-04-05T15:24:32;10.70;29.40
9816;DHT22;4947;44.526;11.360;2023-04-05T15:27:00;10.80;29.30
9816;DHT22;4947;44.526;11.360;2023-04-05T15:29:30;10.90;29.40
9816;DHT22;4947;44.526;11.360;2023-04-05T15:31:58;10.80;29.40
9816;DHT22;4947;44.526;11.360;2023-04-05T15:34:26;10.80;29.80
9816;DHT22;4947;44.526;11.360;2023-04-05T15:36:55;10.60;30.20
9816;DHT22;4947;44.526;11.360;2023-04-05T15:39:22;10.50;29.60
9816;DHT22;4947;44.526;11.360;2023-04-05T15:41:50;10.50;29.60
9816;DHT22;4947;44.526;11.360;2023-04-05T15:44:17;10.40;29.60
9816;DHT22;4947;44.526;11.360;2023-04-05T15:46:47;10.40;29.70
9816;DHT22;4947;44.526;11.360;2023-04-05T15:49:14;10.40;30.30
9816;DHT22;4947;44.526;11.360;2023-04-05T15:51:42;10.40;32.30
9816;DHT22;4947;44.526;11.360;2023-04-05T15:54:10;10.40;32.80
9816;DHT22;4947;44.526;11.360;2023-04-05T15:56:42;10.40;33.10
9816;DHT22;4947;44.526;11.360;2023-04-05T15:59:10;10.50;32.50
9816;DHT22;4947;44.526;11.360;2023-04-05T16:01:39;10.50;33.20
9816;DHT22;4947;44.526;11.360;2023-04-05T16:04:08;10.50;33.00
9816;DHT22;4947;44.526;11.360;2023-04-05T16:06:36;10.50;33.70
9816;DHT22;4947;44.526;11.360;2023-04-05T16:09:04;10.60;33.50